Time;durP1;ratioP1;P1;durP2;ratioP2;P2;SDS_P1;SDS_P2;PMS_P1;PMS_P2;Temp;Humidity;BMP_temperature;BMP_pressure;BME280_temperature;BME280_humidity;BME280_pressure;Samples;Min_cycle;Max_cycle;Signal;HPM_P1;HPM_P2
2022/06/05 00:01:45;;;;;;;29.10;14.15;;;;;;;23.02;100.00;100534.31;5036662;28;20030;-91
2022/06/05 00:04:19;;;;;;;24.88;14.82;;;;;;;23.21;100.00;100542.19;5037825;28;20105;-88
2022/06/05 00:06:48;;;;;;;22.52;14.30;;;;;;;23.25;100.00;100540.63;5033630;28;20045;-89
2022/06/05 00:09:25;;;;;;;29.15;14.52;;;;;;;23.07;100.00;100547.06;5030758;28;20104;-87
2022/06/05 00:12:08;;;;;;;26.20;13.52;;;;;;;23.23;100.00;100546.31;5025726;28;20030;-89
2022/06/05 00:14:39;;;;;;;28.30;14.68;;;;;;;23.17;100.00;100539.97;5034118;28;20044;-89
2022/06/05 00:17:12;;;;;;;35.53;15.50;;;;;;;23.18;100.00;100533.50;5021251;28;20030;-88
2022/06/05 00:19:41;;;;;;;25.55;13.70;;;;;;;23.21;100.00;100532.19;5032136;28;20041;-87
2022/06/05 00:22:07;;;;;;;25.35;13.73;;;;;;;23.07;100.00;100520.03;5033892;28;20583;-90
2022/06/05 00:24:36;;;;;;;29.58;15.02;;;;;;;23.06;100.00;100531.94;4984543;28;20034;-87
2022/06/05 00:27:25;;;;;;;30.23;15.38;;;;;;;22.88;100.00;100532.13;5013489;28;20085;-87
2022/06/05 00:30:11;;;;;;;24.90;14.77;;;;;;;22.96;100.00;100521.75;4991383;28;20030;-89
2022/06/05 00:33:09;;;;;;;26.40;14.40;;;;;;;22.88;100.00;100522.13;5014454;28;20038;-89
2022/06/05 00:35:50;;;;;;;30.23;16.08;;;;;;;22.87;100.00;100514.28;5014615;28;20058;-88
2022/06/05 00:38:38;;;;;;;26.15;15.20;;;;;;;22.77;100.00;100514.91;5013773;28;20044;-89
2022/06/05 00:41:31;;;;;;;24.85;14.73;;;;;;;22.78;100.00;100511.16;5001554;28;20034;-87
2022/06/05 00:43:59;;;;;;;35.08;15.32;;;;;;;;;;5016635;28;20038;-89
2022/06/05 00:46:26;;;;;;;24.17;14.68;;;;;;;22.63;100.00;100491.94;5018225;28;20018;-88
2022/06/05 00:48:52;;;;;;;23.85;14.77;;;;;;;22.57;100.00;100492.91;5012014;28;20042;-87
2022/06/05 00:51:18;;;;;;;29.58;15.63;;;;;;;22.57;100.00;100499.09;5029888;28;20034;-88
2022/06/05 00:53:44;;;;;;;28.58;15.85;;;;;;;22.54;100.00;100498.75;5028016;28;20034;-89
2022/06/05 00:56:11;;;;;;;22.95;14.13;;;;;;;22.68;100.00;100489.34;5010900;28;20034;-86
2022/06/05 00:58:37;;;;;;;24.33;14.75;;;;;;;22.72;100.00;100485.09;5017536;28;20038;-90
2022/06/05 01:01:03;;;;;;;22.85;13.75;;;;;;;22.87;100.00;100493.47;5013200;28;20047;-90
2022/06/05 01:03:30;;;;;;;28.27;15.05;;;;;;;22.79;100.00;100482.25;4993726;28;20041;-90
2022/06/05 01:05:55;;;;;;;24.05;15.15;;;;;;;22.66;100.00;100486.06;4994762;28;20035;-88
2022/06/05 01:08:21;;;;;;;25.23;15.60;;;;;;;22.52;100.00;100480.09;5015208;28;20025;-87
2022/06/05 01:11:15;;;;;;;30.40;15.75;;;;;;;22.48;100.00;100478.13;5001488;28;20026;-88
2022/06/05 01:13:49;;;;;;;28.55;15.13;;;;;;;22.35;100.00;100483.78;5017469;28;20034;-88
2022/06/05 01:16:21;;;;;;;36.17;16.40;;;;;;;22.34;100.00;100479.47;4999056;28;20090;-89
2022/06/05 01:18:58;;;;;;;29.50;16.70;;;;;;;22.34;100.00;100484.88;4997906;28;20069;-88
2022/06/05 01:22:02;;;;;;;29.95;15.32;;;;;;;22.38;100.00;100488.72;5017026;28;20022;-89
2022/06/05 01:24:46;;;;;;;34.00;16.00;;;;;;;22.43;100.00;100486.97;5017786;28;20038;-89
2022/06/05 01:27:19;;;;;;;25.48;15.27;;;;;;;22.31;100.00;100488.03;5016886;28;20049;-91
2022/06/05 01:29:53;;;;;;;26.58;16.27;;;;;;;22.13;100.00;100487.16;5018019;28;20026;-89
2022/06/05 01:32:28;;;;;;;26.33;16.38;;;;;;;22.09;100.00;100483.28;5026041;28;20026;-89
2022/06/05 01:34:59;;;;;;;33.30;16.40;;;;;;;21.99;100.00;100491.19;5036784;28;20034;-89
2022/06/05 01:37:30;;;;;;;29.52;17.20;;;;;;;21.89;100.00;100498.19;5036709;28;20045;-86
2022/06/05 01:40:10;;;;;;;34.25;17.85;;;;;;;21.84;100.00;100492.69;5040688;28;20092;-88
2022/06/05 01:42:43;;;;;;;33.28;18.15;;;;;;;21.79;100.00;100488.00;5023178;28;20026;-86
2022/06/05 01:45:17;;;;;;;29.60;17.55;;;;;;;21.88;100.00;100477.66;5039843;28;20037;-86
2022/06/05 01:47:48;;;;;;;25.67;16.65;;;;;;;21.86;100.00;100477.91;5040436;28;20040;-87
2022/06/05 01:50:18;;;;;;;38.00;17.02;;;;;;;21.72;100.00;100473.81;5020429;28;20026;-87
2022/06/05 01:52:54;;;;;;;24.08;17.58;;;;;;;21.65;100.00;100468.53;5039395;28;20072;-90
2022/06/05 01:55:28;;;;;;;23.35;17.35;;;;;;;21.60;100.00;100460.34;5034927;28;20030;-85
2022/06/05 01:57:57;;;;;;;31.83;18.35;;;;;;;21.52;100.00;100458.00;5037042;28;20061;-89
2022/06/05 02:00:23;;;;;;;35.00;18.55;;;;;;;21.52;100.00;100458.00;5027197;28;20030;-87
2022/06/05 02:02:54;;;;;;;32.75;18.55;;;;;;;21.54;100.00;100445.06;5008414;28;20048;-90
2022/06/05 02:05:25;;;;;;;34.08;19.02;;;;;;;21.47;100.00;100440.88;5024213;28;20050;-89
2022/06/05 02:07:57;;;;;;;39.70;19.77;;;;;;;21.39;100.00;100436.66;5023687;28;20109;-90
2022/06/05 02:10:39;;;;;;;33.30;19.63;;;;;;;21.38;100.00;100437.69;5021272;28;20041;-91
2022/06/05 02:13:04;;;;;;;31.20;18.80;;;;;;;21.31;100.00;100449.69;5021916;28;20073;-89
2022/06/05 02:15:31;;;;;;;35.58;20.80;;;;;;;21.30;100.00;100448.03;5021581;28;20505;-86
2022/06/05 02:17:59;;;;;;;29.45;19.80;;;;;;;21.33;100.00;100450.25;5023404;28;20029;-90
2022/06/05 02:20:25;;;;;;;33.53;20.42;;;;;;;21.29;100.00;100454.47;5002463;28;20042;-88
2022/06/05 02:22:51;;;;;;;31.13;19.63;;;;;;;21.33;100.00;100459.16;5022414;28;20030;-91
2022/06/05 02:25:21;;;;;;;35.20;19.48;;;;;;;21.38;100.00;100450.34;5018478;28;20498;-88
2022/06/05 02:27:46;;;;;;;31.48;20.10;;;;;;;21.34;100.00;100444.63;5003892;28;20045;-89
2022/06/05 02:30:15;;;;;;;35.08;21.00;;;;;;;21.35;100.00;100442.72;5024007;28;20034;-89
2022/06/05 02:32:43;;;;;;;28.58;20.42;;;;;;;21.29;100.00;100443.69;5020381;28;20114;-91
2022/06/05 02:35:37;;;;;;;32.22;19.45;;;;;;;21.30;100.00;100437.25;5018523;28;20050;-88
2022/06/05 02:38:21;;;;;;;30.38;19.02;;;;;;;21.43;100.00;100437.00;5003930;28;20124;-88
2022/06/05 02:40:59;;;;;;;33.55;19.25;;;;;;;21.38;100.00;100434.19;5022571;28;20042;-93
2022/06/05 02:43:43;;;;;;;32.33;20.08;;;;;;;21.31;100.00;100422.72;5003602;28;20069;-89
2022/06/05 02:46:27;;;;;;;34.03;20.90;;;;;;;21.14;100.00;100407.22;5022935;28;20058;-90
2022/06/05 02:49:19;;;;;;;31.83;19.40;;;;;;;21.08;100.00;100410.00;5020722;28;20123;-90
2022/06/05 02:51:46;;;;;;;34.20;20.50;;;;;;;21.07;100.00;100406.50;5021955;28;20034;-90
2022/06/05 02:54:25;;;;;;;35.60;20.90;;;;;;;21.16;100.00;100414.25;5021371;28;20034;-89
2022/06/05 02:56:50;;;;;;;29.83;19.85;;;;;;;21.27;100.00;100421.53;5019857;28;20065;-89
2022/06/05 02:59:17;;;;;;;30.05;19.52;;;;;;;21.27;100.00;100433.16;5021217;28;20038;-91
2022/06/05 03:04:28;;;;;;;31.58;20.58;;;;;;;21.24;100.00;100443.56;5023769;28;20069;-90
2022/06/05 03:06:54;;;;;;;38.88;19.25;;;;;;;21.34;100.00;100444.63;5005204;28;20062;-90
2022/06/05 03:09:19;;;;;;;35.33;20.25;;;;;;;21.44;100.00;100441.34;5020372;28;20030;-90
2022/06/05 03:11:47;;;;;;;34.38;20.67;;;;;;;21.39;100.00;100436.66;5017015;28;20136;-89
2022/06/05 03:14:13;;;;;;;27.88;19.48;;;;;;;21.48;100.00;100429.00;5019446;28;20105;-90
2022/06/05 03:16:39;;;;;;;34.15;19.92;;;;;;;21.41;100.00;100420.25;5002728;28;20049;-89
2022/06/05 03:19:05;;;;;;;36.92;19.60;;;;;;;21.41;100.00;100428.34;5018328;28;20030;-90
2022/06/05 03:21:34;;;;;;;41.70;20.73;;;;;;;21.41;100.00;100422.94;5020010;28;20387;-89
2022/06/05 03:24:00;;;;;;;32.38;19.65;;;;;;;21.44;100.00;100422.47;5027466;28;20057;-88
2022/06/05 03:26:26;;;;;;;28.27;18.33;;;;;;;21.52;100.00;100428.31;5015226;28;20045;-88
2022/06/05 03:29:10;;;;;;;27.15;18.75;;;;;;;21.53;100.00;100431.84;5038408;28;20029;-87
2022/06/05 03:31:36;;;;;;;35.58;19.88;;;;;;;21.51;100.00;100440.16;5038129;28;20056;-87
2022/06/05 03:34:02;;;;;;;27.25;18.48;;;;;;;21.58;100.00;100429.25;5026649;28;20048;-87
2022/06/05 03:36:28;;;;;;;25.98;17.95;;;;;;;21.61;100.00;100426.06;5017299;28;20026;-90
2022/06/05 03:38:53;;;;;;;27.52;18.98;;;;;;;21.74;100.00;100436.63;5018494;28;20038;-89
2022/06/05 03:41:19;;;;;;;25.05;18.20;;;;;;;21.50;100.00;100430.44;5017533;28;20040;-86
2022/06/05 03:43:46;;;;;;;31.60;19.77;;;;;;;21.41;100.00;100439.13;5018863;28;20479;-87
2022/06/05 03:46:14;;;;;;;34.00;20.55;;;;;;;21.39;100.00;100447.44;5000357;28;20038;-88
2022/06/05 03:48:41;;;;;;;37.13;19.90;;;;;;;21.28;100.00;100450.16;5017242;28;20091;-90
2022/06/05 03:51:19;;;;;;;30.85;20.13;;;;;;;21.32;100.00;100448.59;5017258;28;20125;-88
2022/06/05 03:53:49;;;;;;;32.63;19.88;;;;;;;21.23;100.00;100455.41;4981487;28;20041;-87
2022/06/05 03:56:20;;;;;;;33.72;22.05;;;;;;;21.07;100.00;100444.22;5015645;28;20034;-88
2022/06/05 03:58:47;;;;;;;37.67;21.03;;;;;;;21.05;100.00;100456.28;5015663;28;20037;-89
2022/06/05 04:01:16;;;;;;;36.17;21.33;;;;;;;21.03;100.00;100459.22;4999488;28;20495;-91
2022/06/05 04:03:42;;;;;;;42.20;22.70;;;;;;;20.90;100.00;100469.38;5030055;28;20022;-88
2022/06/05 04:06:10;;;;;;;38.97;21.55;;;;;;;20.91;100.00;100461.03;5031920;28;20042;-87
2022/06/05 04:08:36;;;;;;;42.08;22.13;;;;;;;20.89;100.00;100468.56;5030971;28;20531;-89
2022/06/05 04:11:10;;;;;;;33.80;21.40;;;;;;;20.95;100.00;100478.41;5027308;28;20022;-89
2022/06/05 04:13:35;;;;;;;36.42;20.70;;;;;;;21.11;100.00;100480.44;5032001;28;20327;-90
2022/06/05 04:16:01;;;;;;;37.80;19.88;;;;;;;21.04;100.00;100482.44;5023268;28;20041;-86
2022/06/05 04:21:52;;;;;;;29.83;19.25;;;;;;;21.32;100.00;100483.66;4998956;28;20503;-94
2022/06/05 04:24:18;;;;;;;38.78;20.23;;;;;;;21.27;100.00;100481.66;5017081;28;20026;-91
2022/06/05 04:26:44;;;;;;;34.08;18.85;;;;;;;21.29;100.00;100467.94;4997846;28;20483;-90
2022/06/05 04:29:13;;;;;;;29.13;17.77;;;;;;;21.48;100.00;100474.84;5015966;28;20057;-87
2022/06/05 04:31:46;;;;;;;31.88;19.17;;;;;;;21.41;100.00;100476.88;5001055;28;20080;-92
2022/06/05 04:34:14;;;;;;;32.00;18.20;;;;;;;21.43;100.00;100466.66;4997768;28;20093;-87
2022/06/05 04:36:39;;;;;;;42.47;19.55;;;;;;;21.49;100.00;100458.47;5015777;28;20064;-91
2022/06/05 04:39:29;;;;;;;37.03;19.58;;;;;;;21.56;100.00;100458.34;5018619;28;20038;-87
2022/06/05 04:42:30;;;;;;;32.75;20.67;;;;;;;21.59;100.00;100447.06;5072822;22;20058;-85
2022/06/05 04:50:29;;;;;;;30.85;19.92;;;;;;;21.92;100.00;100436.50;5045899;22;20080;-91
2022/06/05 04:52:55;;;;;;;34.38;19.40;;;;;;;22.02;100.00;100431.31;4983969;28;20094;-91
2022/06/05 04:55:21;;;;;;;28.90;20.30;;;;;;;22.03;100.00;100434.84;5018609;28;20041;-91
2022/06/05 04:57:47;;;;;;;27.67;18.35;;;;;;;22.14;100.00;100433.97;5015534;28;20030;-88
2022/06/05 05:00:13;;;;;;;34.70;20.75;;;;;;;22.19;100.00;100435.97;4997528;28;20041;-88
2022/06/05 05:02:38;;;;;;;34.55;20.33;;;;;;;22.21;100.00;100441.94;5014668;28;20030;-89
2022/06/05 05:05:05;;;;;;;31.92;20.38;;;;;;;22.28;100.00;100445.31;5017413;28;20076;-93
2022/06/05 05:07:31;;;;;;;35.95;21.42;;;;;;;22.35;100.00;100429.78;4997691;28;20046;-91
2022/06/05 05:09:56;;;;;;;34.63;19.83;;;;;;;22.39;100.00;100425.56;5015151;28;20434;-89
2022/06/05 05:12:22;;;;;;;43.30;19.60;;;;;;;22.56;100.00;100427.25;5015543;28;20057;-88
2022/06/05 05:14:48;;;;;;;34.40;19.98;;;;;;;22.66;100.00;100437.44;5014955;28;20057;-88
2022/06/05 05:17:13;;;;;;;30.33;18.83;;;;;;;22.77;100.00;100444.63;5017588;28;20069;-90
2022/06/05 05:19:39;;;;;;;30.90;20.10;;;;;;;22.79;100.00;100453.34;4986290;28;20068;-90
2022/06/05 05:22:05;;;;;;;36.67;20.17;;;;;;;22.76;100.00;100445.72;5018810;28;20127;-89
2022/06/05 05:24:30;;;;;;;33.17;19.98;;;;;;;22.73;100.00;100440.81;5000317;28;20053;-89
2022/06/05 05:26:56;;;;;;;41.65;19.17;;;;;;;22.83;100.00;100435.59;4999664;28;20030;-88
2022/06/05 05:29:22;;;;;;;40.42;20.33;;;;;;;22.95;100.00;100441.72;4985638;28;20034;-89
2022/06/05 05:31:50;;;;;;;34.13;20.15;;;;;;;23.02;100.00;100426.16;5000234;28;20026;-89
2022/06/05 05:34:15;;;;;;;37.35;18.88;;;;;;;23.24;100.00;100422.69;4999222;28;20153;-90
2022/06/05 05:36:41;;;;;;;30.67;20.35;;;;;;;23.43;100.00;100432.25;5001642;28;20031;-90
2022/06/05 05:42:08;;;;;;;31.98;19.05;;;;;;;23.82;100.00;100420.34;4998045;28;20047;-88
2022/06/05 05:44:49;;;;;;;34.97;20.17;;;;;;;23.82;100.00;100431.16;4997800;28;20062;-89
2022/06/05 05:47:24;;;;;;;36.08;20.35;;;;;;;24.11;100.00;100438.03;4997664;28;20035;-88
2022/06/05 05:49:55;;;;;;;37.30;19.70;;;;;;;24.21;100.00;100439.22;4980903;28;20039;-88
2022/06/05 05:52:22;;;;;;;30.15;18.30;;;;;;;24.23;100.00;100437.09;4980867;28;20042;-90
2022/06/05 05:54:48;;;;;;;35.55;19.85;;;;;;;24.30;100.00;100435.00;4997663;28;20022;-90
2022/06/05 05:57:14;;;;;;;40.85;20.83;;;;;;;24.42;100.00;100435.69;4998317;28;20039;-91
2022/06/05 05:59:40;;;;;;;38.03;21.85;;;;;;;24.41;100.00;100439.47;4980930;28;20038;-92
2022/06/05 06:02:11;;;;;;;34.28;19.30;;;;;;;24.60;100.00;100455.09;4998281;28;20034;-89
2022/06/05 06:04:41;;;;;;;38.45;21.88;;;;;;;24.68;100.00;100461.97;4981536;28;20067;-90
2022/06/05 06:07:07;;;;;;;34.67;21.23;;;;;;;24.70;100.00;100459.81;4998313;28;20503;-92
2022/06/05 06:09:33;;;;;;;37.58;20.27;;;;;;;24.78;100.00;100456.66;4996957;28;20030;-90
2022/06/05 06:11:59;;;;;;;28.65;16.63;;;;;;;24.84;100.00;100471.09;4966031;28;20030;-87
2022/06/05 06:14:25;;;;;;;40.70;15.32;;;;;;;24.50;100.00;100465.03;4979916;28;20042;-88
2022/06/05 06:16:50;;;;;;;37.80;15.82;;;;;;;24.57;100.00;100452.09;4996651;28;20496;-87
2022/06/05 06:19:17;;;;;;;29.45;14.90;;;;;;;24.53;100.00;100459.09;4996582;28;20483;-89
2022/06/05 06:21:44;;;;;;;31.75;14.82;;;;;;;24.18;100.00;100470.34;4968127;28;20107;-86
2022/06/05 06:24:11;;;;;;;29.92;15.32;;;;;;;24.50;100.00;100465.03;5011816;28;20399;-89
2022/06/05 06:26:36;;;;;;;33.95;17.13;;;;;;;24.83;100.00;100458.59;5015343;28;20040;-90
2022/06/05 06:29:02;;;;;;;30.15;16.73;;;;;;;25.13;100.00;100454.28;5016032;28;20034;-90
2022/06/05 06:31:27;;;;;;;31.58;17.30;;;;;;;25.79;100.00;100454.72;5017919;28;20124;-89
2022/06/05 06:33:53;;;;;;;36.88;21.10;;;;;;;26.06;100.00;100451.88;5023440;28;20073;-88
2022/06/05 06:36:19;;;;;;;41.45;24.13;;;;;;;26.06;100.00;100452.69;5016333;28;20061;-90
2022/06/05 06:38:45;;;;;;;39.55;28.45;;;;;;;25.69;100.00;100446.53;5019758;28;20026;-90
2022/06/05 06:41:14;;;;;;;46.25;29.55;;;;;;;25.61;100.00;100455.19;5015826;28;20033;-87
2022/06/05 06:43:40;;;;;;;54.33;32.28;;;;;;;25.44;100.00;100459.91;4998264;28;20075;-87
2022/06/05 06:46:07;;;;;;;38.47;28.45;;;;;;;25.63;100.00;100458.44;4998237;28;20395;-89
2022/06/05 06:48:36;;;;;;;48.15;30.48;;;;;;;25.32;100.00;100448.44;4999533;28;20533;-87
2022/06/05 06:51:04;;;;;;;48.85;30.85;;;;;;;25.80;100.00;100458.25;5015192;28;20041;-90
2022/06/05 06:53:31;;;;;;;49.42;30.52;;;;;;;25.74;100.00;100459.31;5016360;28;20045;-89
2022/06/05 06:55:58;;;;;;;43.15;28.77;;;;;;;25.70;100.00;100449.00;5015060;28;20040;-90
2022/06/05 06:58:24;;;;;;;47.80;27.92;;;;;;;25.45;100.00;100445.28;4997925;28;20514;-88
2022/06/05 07:00:50;;;;;;;45.20;28.25;;;;;;;25.51;100.00;100444.25;5017021;28;20040;-89
2022/06/05 07:03:16;;;;;;;46.47;27.42;;;;;;;25.61;100.00;100428.03;4999353;28;20124;-89
2022/06/05 07:05:41;;;;;;;45.38;27.42;;;;;;;25.54;100.00;100427.44;5121467;22;20050;-89
2022/06/05 07:08:09;;;;;;;47.97;30.40;;;;;;;25.38;100.00;100418.38;4978936;28;20396;-88
2022/06/05 07:10:36;;;;;;;51.45;30.77;;;;;;;25.59;100.00;100414.72;4974490;28;20437;-88
2022/06/05 07:13:03;;;;;;;57.40;33.72;;;;;;;26.07;100.00;100419.03;4993115;28;20113;-89
2022/06/05 07:15:34;;;;;;;50.88;34.92;;;;;;;25.92;100.00;100408.09;4961651;28;20118;-88
2022/06/05 07:18:07;;;;;;;55.35;36.83;;;;;;;25.68;100.00;100418.59;4976884;28;20114;-88
2022/06/05 07:20:42;;;;;;;50.45;36.70;;;;;;;26.22;100.00;100422.91;4959579;28;20050;-88
2022/06/05 07:23:08;;;;;;;60.45;39.05;;;;;;;26.16;100.00;100425.59;4959721;28;20038;-90
2022/06/05 07:25:35;;;;;;;73.80;41.08;;;;;;;25.88;100.00;100422.47;4958935;28;20110;-86
2022/06/05 07:28:01;;;;;;;67.57;41.80;;;;;;;26.06;100.00;100420.09;4959260;28;20377;-86
2022/06/05 07:30:27;;;;;;;54.03;38.58;;;;;;;26.30;100.00;100425.09;4983407;28;20045;-85
2022/06/05 07:32:53;;;;;;;59.90;40.92;;;;;;;26.41;100.00;100421.31;4976364;28;20042;-89
2022/06/05 07:35:19;;;;;;;61.50;40.58;;;;;;;26.26;100.00;100413.13;4975743;28;20454;-83
2022/06/05 07:37:46;;;;;;;60.00;39.90;;;;;;;26.22;100.00;100422.91;4975358;28;20035;-88
2022/06/05 07:40:13;;;;;;;53.58;39.03;;;;;;;26.19;100.00;100403.31;4976924;28;20039;-87
2022/06/05 07:46:27;;;;;;;59.53;35.00;;;;;;;26.50;100.00;100411.53;4994365;28;20070;-87
2022/06/05 07:48:52;;;;;;;53.10;33.17;;;;;;;27.08;100.00;100411.06;4998543;28;20034;-90
2022/06/05 07:54:31;;;;;;;41.67;27.77;;;;;;;27.83;100.00;100403.84;4981026;28;20445;-90
2022/06/05 07:57:19;;;;;;;36.92;25.90;;;;;;;27.48;100.00;100412.09;4965406;28;20455;-89
2022/06/05 07:59:46;;;;;;;34.65;21.95;;;;;;;27.24;100.00;100393.63;4981337;28;20065;-87
2022/06/05 08:02:14;;;;;;;38.08;23.30;;;;;;;27.14;100.00;100396.38;5003029;28;20505;-91
2022/06/05 08:04:42;;;;;;;34.50;21.63;;;;;;;27.03;100.00;100388.50;5017476;28;20045;-85
2022/06/05 08:07:10;;;;;;;30.17;21.17;;;;;;;27.03;100.00;100386.59;4985524;28;20121;-87
2022/06/05 08:09:40;;;;;;;36.40;21.45;;;;;;;27.01;100.00;100388.75;4990120;28;20069;-91
2022/06/05 08:12:08;;;;;;;40.78;20.63;;;;;;;27.40;100.00;100397.16;4995014;28;20041;-89
2022/06/05 08:14:35;;;;;;;34.70;19.95;;;;;;;27.28;100.00;100398.53;5000866;28;20077;-91
2022/06/05 08:17:09;;;;;;;40.13;20.77;;;;;;;27.00;100.00;100394.47;4999221;28;20057;-89
2022/06/05 08:19:37;;;;;;;39.38;20.95;;;;;;;27.12;100.00;100398.53;4979887;28;20068;-90
2022/06/05 08:22:04;;;;;;;34.08;20.05;;;;;;;27.43;99.64;100406.66;4978620;28;20042;-89
2022/06/05 08:24:29;;;;;;;33.70;21.20;;;;;;;27.19;100.00;100396.34;4999023;28;20098;-87
2022/06/05 08:26:59;;;;;;;34.95;21.05;;;;;;;27.23;100.00;100400.16;4990470;28;20026;-87
2022/06/05 08:29:27;;;;;;;36.08;22.05;;;;;;;26.62;100.00;100388.44;4996177;28;20052;-90
2022/06/05 08:31:53;;;;;;;43.53;22.05;;;;;;;26.59;100.00;100401.75;4991340;28;20046;-92
2022/06/05 08:34:19;;;;;;;34.92;21.92;;;;;;;26.24;100.00;100404.44;4990688;28;20464;-90
2022/06/05 08:36:46;;;;;;;36.80;22.13;;;;;;;26.27;100.00;100398.47;4988082;28;20045;-93
2022/06/05 08:42:02;;;;;;;34.38;22.20;;;;;;;26.15;100.00;100402.19;4993386;28;20030;-91
2022/06/05 08:44:55;;;;;;;38.08;22.25;;;;;;;26.42;100.00;100406.63;4996228;28;20392;-90
2022/06/05 08:47:48;;;;;;;38.45;21.65;;;;;;;26.38;100.00;100402.84;4996992;28;20077;-88
2022/06/05 08:50:35;;;;;;;;;;;;;;;26.18;100.00;100393.53;4996504;28;20038;-91
2022/06/05 08:53:42;;;;;;;41.58;22.67;;;;;;;26.49;100.00;100399.03;4998430;28;19945;-91
2022/06/05 08:56:22;;;;;;;34.30;22.35;;;;;;;26.57;100.00;100403.94;4999805;28;20030;-89
2022/06/05 08:58:53;;;;;;;35.38;21.15;;;;;;;26.54;100.00;100426.25;4979005;28;20034;-93
2022/06/05 09:01:33;;;;;;;42.00;23.30;;;;;;;26.88;100.00;100415.72;4994042;28;20026;-91
2022/06/05 09:04:10;;;;;;;43.22;21.95;;;;;;;27.23;100.00;100413.78;4966331;28;20044;-93
2022/06/05 09:06:45;;;;;;;36.10;22.38;;;;;;;27.45;100.00;100420.81;4976752;28;20077;-91
2022/06/05 09:09:23;;;;;;;36.63;21.05;;;;;;;28.16;97.53;100414.06;4987438;28;20035;-94
2022/06/05 09:11:59;;;;;;;32.45;19.40;;;;;;;28.40;96.29;100416.13;4986979;28;20066;-93
2022/06/05 09:14:38;;;;;;;31.35;20.45;;;;;;;28.76;94.81;100409.34;4986683;28;20539;-90
2022/06/05 09:17:14;;;;;;;37.13;19.10;;;;;;;28.92;93.15;100413.59;4990294;28;20042;-91
2022/06/05 09:19:41;;;;;;;30.80;18.60;;;;;;;29.09;93.96;100415.91;4993208;28;20038;-93
2022/06/05 09:22:16;;;;;;;35.08;19.83;;;;;;;29.30;90.59;100425.53;4994514;28;20058;-91
2022/06/05 09:25:01;;;;;;;32.55;19.27;;;;;;;29.10;90.48;100425.72;5023437;22;20042;-92
2022/06/05 09:27:45;;;;;;;32.95;17.73;;;;;;;29.32;89.83;100428.81;4987536;28;20034;-91
2022/06/05 09:30:26;;;;;;;36.10;18.88;;;;;;;29.06;92.47;100428.22;5019952;28;20038;-88
2022/06/05 09:35:53;;;;;;;33.17;17.30;;;;;;;29.12;91.93;100418.03;5052128;22;20145;-88
2022/06/05 09:38:46;;;;;;;28.45;16.73;;;;;;;29.45;90.01;100416.38;4993738;28;20120;-88
2022/06/05 09:41:59;;;;;;;30.67;15.27;;;;;;;29.83;88.48;100418.16;4996747;28;20038;-87
2022/06/05 09:45:33;;;;;;;27.60;15.07;;;;;;;29.94;87.53;100416.13;5014647;28;20041;-87
2022/06/05 10:00:00;;;;;;;35.13;13.20;;;;;;;29.91;88.15;100389.38;5015159;28;20068;-89
2022/06/05 10:02:28;;;;;;;27.95;16.17;;;;;;;30.52;84.01;100386.63;5035940;28;20044;-88
2022/06/05 10:04:55;;;;;;;24.35;12.45;;;;;;;31.00;83.11;100393.50;5033397;28;20049;-88
2022/06/05 10:08:04;;;;;;;19.80;11.98;;;;;;;31.29;78.91;100389.72;5036182;28;20092;-88
2022/06/05 10:10:45;;;;;;;29.23;12.98;;;;;;;30.89;80.19;100381.06;5037411;28;20042;-88
2022/06/05 10:19:22;;;;;;;16.98;11.48;;;;;;;30.96;80.23;100365.09;5019954;28;20081;-88
2022/06/05 10:21:58;;;;;;;24.75;10.60;;;;;;;31.71;78.50;100370.28;5004693;28;20069;-90
2022/06/05 10:24:58;;;;;;;31.60;13.65;;;;;;;31.80;77.94;100371.19;5020814;28;20032;-87
2022/06/05 10:29:59;;;;;;;20.00;11.23;;;;;;;31.50;78.73;100355.31;5120120;22;20042;-90
2022/06/05 10:32:53;;;;;;;27.00;11.88;;;;;;;30.93;79.63;100354.72;4979109;28;20579;-92
2022/06/05 10:41:51;;;;;;;32.65;11.95;;;;;;;31.33;77.77;100341.41;5026515;28;20488;-89
2022/06/05 10:44:38;;;;;;;22.85;10.73;;;;;;;31.06;78.80;100332.06;5024298;28;20038;-90
2022/06/05 10:47:32;;;;;;;26.88;10.38;;;;;;;31.27;78.50;100319.63;5024673;28;20106;-92
2022/06/05 10:50:26;;;;;;;28.70;10.32;;;;;;;31.03;79.05;100327.19;5026482;28;20039;-93
2022/06/05 10:53:07;;;;;;;19.77;8.93;;;;;;;30.75;77.87;100326.31;4992406;28;20057;-89
2022/06/05 10:56:00;;;;;;;19.75;9.40;;;;;;;30.69;78.08;100332.97;5021471;28;20037;-92
2022/06/05 10:58:38;;;;;;;23.35;10.00;;;;;;;31.31;75.81;100329.97;5249249;22;20030;-92
2022/06/05 11:01:13;;;;;;;29.23;9.30;;;;;;;31.75;74.46;100330.19;4964741;28;20040;-92
2022/06/05 11:04:09;;;;;;;23.73;8.55;;;;;;;32.02;73.70;100335.59;4981369;28;20034;-93
2022/06/05 11:06:53;;;;;;;20.77;10.45;;;;;;;32.27;73.15;100339.72;4981120;28;20042;-91
2022/06/05 11:09:37;;;;;;;25.20;9.60;;;;;;;32.23;73.46;100339.53;4981428;28;20040;-93
2022/06/05 11:15:17;;;;;;;20.05;9.90;;;;;;;32.31;72.78;100345.41;4998957;28;20050;-91
2022/06/05 11:18:08;;;;;;;29.42;9.20;;;;;;;32.53;71.38;100321.53;4969471;28;20388;-93
2022/06/05 11:20:38;;;;;;;23.15;7.97;;;;;;;32.90;70.74;100325.81;4967151;28;20412;-93
2022/06/05 11:23:13;;;;;;;34.65;9.40;;;;;;;33.28;68.15;100332.47;4968612;28;20038;-91
2022/06/05 11:26:16;;;;;;;21.60;7.45;;;;;;;32.65;69.69;100329.19;4969373;28;20038;-92
2022/06/05 11:28:57;;;;;;;24.13;7.25;;;;;;;32.66;70.68;100325.34;4981939;28;20510;-92
2022/06/05 11:31:44;;;;;;;25.73;7.88;;;;;;;32.17;61.87;100326.25;4999089;28;20031;-92
2022/06/05 11:34:34;;;;;;;22.98;7.35;;;;;;;31.48;64.75;100317.28;4980210;28;20042;-93
2022/06/05 11:37:47;;;;;;;23.27;7.63;;;;;;;31.11;65.87;100321.03;4998492;28;20464;-95
2022/06/05 11:40:54;;;;;;;21.40;7.10;;;;;;;31.14;67.17;100316.88;4930369;28;20058;-91
2022/06/05 11:43:36;;;;;;;17.33;8.38;;;;;;;31.22;68.93;100314.22;4992045;28;20421;-94
2022/06/05 11:46:14;;;;;;;19.95;7.22;;;;;;;31.35;68.35;100303.59;4990221;28;20065;-92
2022/06/05 11:48:59;;;;;;;18.13;7.13;;;;;;;31.36;69.29;100313.41;4981295;28;20042;-90
2022/06/05 11:51:34;;;;;;;26.98;9.68;;;;;;;31.35;70.06;100320.03;4981044;28;20039;-91
2022/06/05 11:54:21;;;;;;;22.48;8.88;;;;;;;31.02;71.44;100314.66;4981246;28;20042;-90
2022/06/05 11:57:14;;;;;;;19.02;9.68;;;;;;;30.82;72.12;100304.03;4981371;28;20041;-95
2022/06/05 11:59:53;;;;;;;21.13;7.65;;;;;;;30.80;71.38;100306.25;4965475;28;20045;-92
2022/06/05 12:02:29;;;;;;;22.25;8.23;;;;;;;30.66;71.91;100302.66;4969830;28;20061;-92
2022/06/05 12:05:32;;;;;;;26.73;7.65;;;;;;;30.95;68.76;100303.25;4983943;28;20423;-92
2022/06/05 12:08:05;;;;;;;32.17;7.07;;;;;;;30.46;70.21;100287.41;4985838;28;20044;-91
2022/06/05 12:10:34;;;;;;;27.20;7.05;;;;;;;30.12;71.61;100284.13;5001790;28;20078;-91
2022/06/05 12:13:38;;;;;;;26.38;7.88;;;;;;;30.40;71.76;100274.94;5018712;28;20030;-92
2022/06/05 12:16:17;;;;;;;30.60;9.50;;;;;;;30.41;73.82;100271.09;4890353;29;20109;-92
2022/06/05 12:18:54;;;;;;;24.05;8.27;;;;;;;30.45;73.96;100272.13;4885505;29;20041;-92
2022/06/05 12:21:28;;;;;;;24.17;8.52;;;;;;;30.56;73.01;100267.31;4901071;29;20056;-91
2022/06/05 12:24:06;;;;;;;19.15;7.20;;;;;;;30.77;72.47;100263.88;4872110;29;20049;-93
2022/06/05 12:27:08;;;;;;;23.80;7.82;;;;;;;31.06;71.00;100265.53;4913904;28;20066;-93
2022/06/05 12:33:05;;;;;;;22.75;7.25;;;;;;;31.23;68.95;100252.88;4354514;26;20073;-92
2022/06/05 12:35:55;;;;;;;28.05;6.82;;;;;;;30.97;67.25;100246.28;5054250;28;20046;-90